Time;durP1;ratioP1;P1;durP2;ratioP2;P2;SDS_P1;SDS_P2;PMS_P1;PMS_P2;Temp;Humidity;BMP_temperature;BMP_pressure;BME280_temperature;BME280_humidity;BME280_pressure;Samples;Min_cycle;Max_cycle;Signal;HPM_P1;HPM_P2
2022/02/25 00:00:07;;;;;;;;;;;3.00;99.90;;;;;;5020503;28;19948;-76
2022/02/25 00:02:34;;;;;;;;;;;3.00;99.90;;;;;;5023869;28;19934;-75
2022/02/25 00:05:01;;;;;;;;;;;2.90;99.90;;;;;;5020775;28;19932;-75
2022/02/25 00:07:27;;;;;;;;;;;3.00;99.90;;;;;;5022151;28;19960;-75
2022/02/25 00:09:55;;;;;;;;;;;3.00;99.90;;;;;;5024427;28;20368;-75
2022/02/25 00:12:22;;;;;;;;;;;3.00;99.90;;;;;;5023677;28;20384;-75
2022/02/25 00:14:50;;;;;;;;;;;3.00;99.90;;;;;;5009270;28;20471;-75
2022/02/25 00:17:16;;;;;;;;;;;3.00;99.90;;;;;;5000221;28;19934;-75
2022/02/25 00:19:43;;;;;;;;;;;3.00;99.90;;;;;;5000699;28;19934;-75
2022/02/25 00:22:09;;;;;;;;;;;3.00;99.90;;;;;;5003936;28;20303;-75
2022/02/25 00:24:36;;;;;;;;;;;3.00;99.90;;;;;;5007825;28;19932;-75
2022/02/25 00:27:05;;;;;;;;;;;2.90;99.90;;;;;;4998473;28;19940;-75
2022/02/25 00:29:31;;;;;;;;;;;3.00;99.90;;;;;;5004460;28;19932;-75
2022/02/25 00:31:58;;;;;;;;;;;3.00;99.90;;;;;;4995253;28;19930;-76
2022/02/25 00:34:25;;;;;;;;;;;3.00;99.90;;;;;;5007177;28;20308;-76
2022/02/25 00:36:51;;;;;;;;;;;2.90;99.90;;;;;;5015732;28;19977;-76
2022/02/25 00:39:18;;;;;;;;;;;2.90;99.90;;;;;;5014185;28;19983;-76
2022/02/25 00:41:44;;;;;;;;;;;2.90;99.90;;;;;;5017565;28;20020;-76
2022/02/25 00:44:13;;;;;;;;;;;2.90;99.90;;;;;;5013954;28;19926;-76
2022/02/25 00:46:40;;;;;;;;;;;3.00;99.90;;;;;;4999606;28;19947;-76
2022/02/25 00:49:07;;;;;;;;;;;3.00;99.90;;;;;;5008060;28;19932;-76
2022/02/25 00:51:33;;;;;;;;;;;3.40;99.90;;;;;;5000997;28;19929;-75
2022/02/25 00:54:00;;;;;;;;;;;2.90;99.90;;;;;;5013267;28;19932;-76
2022/02/25 00:56:27;;;;;;;;;;;2.80;99.90;;;;;;5005034;28;19932;-76
2022/02/25 00:58:54;;;;;;;;;;;2.90;99.90;;;;;;5010838;28;20020;-76
2022/02/25 01:01:22;;;;;;;;;;;2.90;99.90;;;;;;5004111;28;19996;-76
2022/02/25 01:03:49;;;;;;;;;;;2.80;99.90;;;;;;5007615;28;19929;-76
2022/02/25 01:06:15;;;;;;;;;;;2.80;99.90;;;;;;5004738;28;19932;-75
2022/02/25 01:08:42;;;;;;;;;;;2.80;99.90;;;;;;5005500;28;20295;-76
2022/02/25 01:11:08;;;;;;;;;;;2.70;99.90;;;;;;5004835;28;20479;-76
2022/02/25 01:13:35;;;;;;;;;;;2.70;99.90;;;;;;5003068;28;20407;-75
2022/02/25 01:16:02;;;;;;;;;;;2.70;99.90;;;;;;5009660;28;19929;-76
2022/02/25 01:18:30;;;;;;;;;;;2.80;99.90;;;;;;5009320;28;19993;-76
2022/02/25 01:20:56;;;;;;;;;;;2.80;99.90;;;;;;5007491;28;20052;-75
2022/02/25 01:23:23;;;;;;;;;;;2.80;99.90;;;;;;4999132;28;20303;-75
2022/02/25 01:25:50;;;;;;;;;;;2.80;99.90;;;;;;5001458;28;20402;-75
2022/02/25 01:28:16;;;;;;;;;;;2.70;99.90;;;;;;4999941;28;20356;-74
2022/02/25 01:30:43;;;;;;;;;;;2.70;99.90;;;;;;5004500;28;19925;-74
2022/02/25 01:33:10;;;;;;;;;;;2.70;99.90;;;;;;5014635;28;20444;-74
2022/02/25 01:35:38;;;;;;;;;;;2.70;99.90;;;;;;5000841;28;19926;-75
2022/02/25 01:38:05;;;;;;;;;;;2.70;99.90;;;;;;5003212;28;19926;-74
2022/02/25 01:40:31;;;;;;;;;;;2.60;99.90;;;;;;5007984;28;19930;-75
2022/02/25 01:42:58;;;;;;;;;;;2.70;99.90;;;;;;4999676;28;19925;-75
2022/02/25 01:45:26;;;;;;;;;;;2.60;99.90;;;;;;5007450;28;20280;-75
2022/02/25 01:47:52;;;;;;;;;;;2.60;99.90;;;;;;5003663;28;19932;-75
2022/02/25 01:50:19;;;;;;;;;;;2.60;99.90;;;;;;5007669;28;20380;-75
2022/02/25 01:52:50;;;;;;;;;;;2.50;99.90;;;;;;5003903;28;19932;-75
2022/02/25 01:55:17;;;;;;;;;;;2.60;99.90;;;;;;5000970;28;20316;-75
2022/02/25 01:57:43;;;;;;;;;;;2.60;99.90;;;;;;4998167;28;20367;-76
2022/02/25 02:00:10;;;;;;;;;;;2.50;99.90;;;;;;5007648;28;19926;-75
2022/02/25 02:02:37;;;;;;;;;;;2.50;99.90;;;;;;4995572;28;20299;-75
2022/02/25 02:05:04;;;;;;;;;;;2.50;99.90;;;;;;5005076;28;19926;-75
2022/02/25 02:07:30;;;;;;;;;;;2.50;99.90;;;;;;4995535;28;20124;-76
2022/02/25 02:09:59;;;;;;;;;;;2.50;99.90;;;;;;5003527;28;19936;-75
2022/02/25 02:12:26;;;;;;;;;;;2.50;99.90;;;;;;4993825;28;19925;-75
2022/02/25 02:14:53;;;;;;;;;;;2.50;99.90;;;;;;5007177;28;19981;-75
2022/02/25 02:17:21;;;;;;;;;;;2.50;99.90;;;;;;5000602;28;19936;-75
2022/02/25 02:19:48;;;;;;;;;;;2.50;99.90;;;;;;5008021;28;19932;-74
2022/02/25 02:22:15;;;;;;;;;;;2.50;99.90;;;;;;5003052;28;19939;-75
2022/02/25 02:24:43;;;;;;;;;;;2.50;99.90;;;;;;4994266;28;19933;-75
2022/02/25 02:27:10;;;;;;;;;;;2.40;99.90;;;;;;5005167;28;20028;-75
2022/02/25 02:29:36;;;;;;;;;;;2.50;99.90;;;;;;4995911;28;20047;-75
2022/02/25 02:32:03;;;;;;;;;;;2.60;99.90;;;;;;5051847;28;19968;-75
2022/02/25 02:34:30;;;;;;;;;;;2.70;99.90;;;;;;5008135;28;19929;-75
2022/02/25 02:36:57;;;;;;;;;;;2.60;99.90;;;;;;5003993;28;19925;-75
2022/02/25 02:39:23;;;;;;;;;;;2.60;99.90;;;;;;5002989;28;19948;-75
2022/02/25 02:41:51;;;;;;;;;;;2.60;99.90;;;;;;4994889;28;20410;-75
2022/02/25 02:44:18;;;;;;;;;;;2.60;99.90;;;;;;5004340;28;19925;-75
2022/02/25 02:46:44;;;;;;;;;;;2.60;99.90;;;;;;5006628;28;20315;-75
2022/02/25 02:49:11;;;;;;;;;;;2.60;99.90;;;;;;5002016;28;20384;-75
2022/02/25 02:51:38;;;;;;;;;;;2.70;99.90;;;;;;5014101;28;19926;-75
2022/02/25 02:54:05;;;;;;;;;;;2.60;99.90;;;;;;4999986;28;20020;-75
2022/02/25 02:56:31;;;;;;;;;;;2.60;99.90;;;;;;4997318;28;19932;-75
2022/02/25 02:58:59;;;;;;;;;;;2.60;99.90;;;;;;5002430;28;20012;-75
2022/02/25 03:01:27;;;;;;;;;;;2.50;99.90;;;;;;4991494;28;20024;-75
2022/02/25 03:03:54;;;;;;;;;;;2.50;99.90;;;;;;4995626;28;19925;-75
2022/02/25 03:06:21;;;;;;;;;;;2.70;99.90;;;;;;4996203;28;19929;-75
2022/02/25 03:08:48;;;;;;;;;;;2.50;99.90;;;;;;4998561;28;19934;-74
2022/02/25 03:11:15;;;;;;;;;;;2.50;99.90;;;;;;5005769;28;19948;-74
2022/02/25 03:13:42;;;;;;;;;;;2.50;99.90;;;;;;5000369;28;20312;-74
2022/02/25 03:16:10;;;;;;;;;;;2.40;99.90;;;;;;5008907;28;20060;-74
2022/02/25 03:18:36;;;;;;;;;;;2.40;99.90;;;;;;5005325;28;19929;-74
2022/02/25 03:21:03;;;;;;;;;;;2.40;99.90;;;;;;4997733;28;20071;-75
2022/02/25 03:23:30;;;;;;;;;;;2.30;99.90;;;;;;5002918;28;19926;-75
2022/02/25 03:25:56;;;;;;;;;;;2.30;99.90;;;;;;5004238;28;19932;-76
2022/02/25 03:28:23;;;;;;;;;;;2.40;99.90;;;;;;5002561;28;19926;-75
2022/02/25 03:30:50;;;;;;;;;;;2.30;99.90;;;;;;5004992;28;19936;-75
2022/02/25 03:33:18;;;;;;;;;;;2.30;99.90;;;;;;5004819;28;19932;-75
2022/02/25 03:35:44;;;;;;;;;;;2.30;99.90;;;;;;4997267;28;19926;-75
2022/02/25 03:38:11;;;;;;;;;;;2.20;99.90;;;;;;5011409;28;19925;-75
2022/02/25 03:40:38;;;;;;;;;;;2.10;99.90;;;;;;5010131;28;19925;-75
2022/02/25 03:43:04;;;;;;;;;;;2.10;99.90;;;;;;5006239;28;19925;-75
2022/02/25 03:45:31;;;;;;;;;;;2.20;99.90;;;;;;5002885;28;20032;-75
2022/02/25 03:47:58;;;;;;;;;;;2.10;99.90;;;;;;5004928;28;19932;-75
2022/02/25 03:50:26;;;;;;;;;;;2.10;99.90;;;;;;5006384;28;20455;-74
2022/02/25 03:52:52;;;;;;;;;;;2.20;99.90;;;;;;5005863;28;19925;-75
2022/02/25 03:55:19;;;;;;;;;;;2.20;99.90;;;;;;5003189;28;20442;-75
2022/02/25 03:57:45;;;;;;;;;;;2.20;99.90;;;;;;5009905;28;20365;-75
2022/02/25 04:00:13;;;;;;;;;;;2.20;99.90;;;;;;4998251;28;20295;-75
2022/02/25 04:02:40;;;;;;;;;;;2.10;99.90;;;;;;5000137;28;19926;-75
2022/02/25 04:05:10;;;;;;;;;;;2.30;99.90;;;;;;5000065;28;20020;-75
2022/02/25 04:07:39;;;;;;;;;;;2.30;99.90;;;;;;5007950;28;20162;-75
2022/02/25 04:10:06;;;;;;;;;;;2.30;99.90;;;;;;5002985;28;19933;-75
2022/02/25 04:12:32;;;;;;;;;;;2.20;99.90;;;;;;5008424;28;20024;-76
2022/02/25 04:14:59;;;;;;;;;;;2.00;99.90;;;;;;4999738;28;19926;-77
2022/02/25 04:17:26;;;;;;;;;;;2.40;99.90;;;;;;5005266;28;19940;-76
2022/02/25 04:19:52;;;;;;;;;;;2.30;99.90;;;;;;5001968;28;20304;-76
2022/02/25 04:22:19;;;;;;;;;;;2.30;99.90;;;;;;5013337;28;19939;-76
2022/02/25 04:24:47;;;;;;;;;;;2.30;99.90;;;;;;5010662;28;19932;-76
2022/02/25 04:27:13;;;;;;;;;;;2.30;99.90;;;;;;5009446;28;19948;-76
2022/02/25 04:29:42;;;;;;;;;;;2.30;99.90;;;;;;5009947;28;19953;-76
2022/02/25 04:32:09;;;;;;;;;;;2.30;99.90;;;;;;4997302;28;20254;-76
2022/02/25 04:34:36;;;;;;;;;;;2.30;99.90;;;;;;4998897;28;19965;-76
2022/02/25 04:37:03;;;;;;;;;;;2.30;99.90;;;;;;5013335;28;19936;-76
2022/02/25 04:39:29;;;;;;;;;;;2.30;99.90;;;;;;5004834;28;19926;-76
2022/02/25 04:41:57;;;;;;;;;;;2.40;99.90;;;;;;5006357;28;20024;-76
2022/02/25 04:44:24;;;;;;;;;;;2.50;99.90;;;;;;4999720;28;19926;-76
2022/02/25 04:46:50;;;;;;;;;;;2.50;99.90;;;;;;5008845;28;19930;-76
2022/02/25 04:49:17;;;;;;;;;;;2.50;99.90;;;;;;5003362;28;20021;-75
2022/02/25 04:51:44;;;;;;;;;;;2.70;99.90;;;;;;4997805;28;19926;-76
2022/02/25 04:54:10;;;;;;;;;;;2.70;99.90;;;;;;5001722;28;19936;-75
2022/02/25 04:56:37;;;;;;;;;;;2.80;99.90;;;;;;4994801;28;20024;-75
2022/02/25 04:59:05;;;;;;;;;;;2.80;99.90;;;;;;4999198;28;19932;-75
2022/02/25 05:01:32;;;;;;;;;;;2.90;99.90;;;;;;5003683;28;20009;-76
2022/02/25 05:03:59;;;;;;;;;;;2.90;99.90;;;;;;4996486;28;19926;-74
2022/02/25 05:06:25;;;;;;;;;;;2.90;99.90;;;;;;4996042;28;20328;-75
2022/02/25 05:08:54;;;;;;;;;;;3.00;99.90;;;;;;5004550;28;20492;-74
2022/02/25 05:11:20;;;;;;;;;;;3.00;99.90;;;;;;5008229;28;19951;-76
2022/02/25 05:13:47;;;;;;;;;;;2.90;99.90;;;;;;5004869;28;19983;-76
2022/02/25 05:21:43;;;;;;;;;;;3.10;99.90;;;;;;5002958;28;19952;-74
2022/02/25 05:24:10;;;;;;;;;;;3.10;99.90;;;;;;5001485;28;19940;-74
2022/02/25 05:26:37;;;;;;;;;;;3.10;99.90;;;;;;4999349;28;19965;-72
2022/02/25 05:29:03;;;;;;;;;;;3.00;99.90;;;;;;5005047;28;19932;-72
2022/02/25 05:31:33;;;;;;;;;;;3.00;99.90;;;;;;5013287;28;19929;-72
2022/02/25 05:33:59;;;;;;;;;;;3.10;99.90;;;;;;5002279;28;19941;-72
2022/02/25 05:36:26;;;;;;;;;;;3.10;99.90;;;;;;5007872;28;20373;-72
2022/02/25 05:38:55;;;;;;;;;;;3.20;99.90;;;;;;5000483;28;20041;-72
2022/02/25 05:41:22;;;;;;;;;;;3.20;99.90;;;;;;5002402;28;20016;-72
2022/02/25 05:43:48;;;;;;;;;;;3.20;99.90;;;;;;4999518;28;19925;-72
2022/02/25 05:46:15;;;;;;;;;;;3.30;99.90;;;;;;5001853;28;19940;-72
2022/02/25 05:48:43;;;;;;;;;;;3.30;99.90;;;;;;5005828;28;20024;-72
2022/02/25 05:51:10;;;;;;;;;;;3.40;99.90;;;;;;5003536;28;19932;-72
2022/02/25 05:53:36;;;;;;;;;;;3.40;99.90;;;;;;5006020;28;20373;-72
2022/02/25 05:56:03;;;;;;;;;;;3.50;99.90;;;;;;5010353;28;19932;-72
2022/02/25 05:58:30;;;;;;;;;;;3.50;99.90;;;;;;5007535;28;19992;-72
2022/02/25 06:00:56;;;;;;;;;;;3.50;99.90;;;;;;5003510;28;19941;-72
2022/02/25 06:03:23;;;;;;;;;;;3.60;99.90;;;;;;5006811;28;19925;-71
2022/02/25 06:05:51;;;;;;;;;;;3.60;99.90;;;;;;5010971;28;20028;-72
2022/02/25 06:08:18;;;;;;;;;;;3.70;99.90;;;;;;5010806;28;19968;-72
2022/02/25 06:10:45;;;;;;;;;;;3.80;99.90;;;;;;5007539;28;20302;-72
2022/02/25 06:13:12;;;;;;;;;;;3.80;99.90;;;;;;4998927;28;19930;-72
2022/02/25 06:15:39;;;;;;;;;;;3.70;99.90;;;;;;5004157;28;19931;-73
2022/02/25 06:18:05;;;;;;;;;;;3.70;99.90;;;;;;5010818;28;19925;-72
2022/02/25 06:20:32;;;;;;;;;;;3.70;99.90;;;;;;5010932;28;19926;-72
2022/02/25 06:23:00;;;;;;;;;;;3.70;99.90;;;;;;5003083;28;19932;-73
2022/02/25 06:25:27;;;;;;;;;;;3.80;99.90;;;;;;4997370;28;19926;-72
2022/02/25 06:27:54;;;;;;;;;;;3.70;99.90;;;;;;4997700;28;19926;-74
2022/02/25 06:30:20;;;;;;;;;;;3.70;99.90;;;;;;5010714;28;20320;-74
2022/02/25 06:32:47;;;;;;;;;;;3.80;99.90;;;;;;5005886;28;19964;-73
2022/02/25 06:35:14;;;;;;;;;;;3.70;99.90;;;;;;5001448;28;19929;-72
2022/02/25 06:37:41;;;;;;;;;;;3.80;99.90;;;;;;5008039;28;19932;-72
2022/02/25 06:40:10;;;;;;;;;;;3.80;99.90;;;;;;5007000;28;19926;-72
2022/02/25 06:42:37;;;;;;;;;;;3.80;99.90;;;;;;4997756;28;19990;-73
2022/02/25 06:45:04;;;;;;;;;;;3.70;99.90;;;;;;4997484;28;19929;-72
2022/02/25 06:47:30;;;;;;;;;;;3.70;99.90;;;;;;5001278;28;20406;-72
2022/02/25 06:49:57;;;;;;;;;;;3.70;99.90;;;;;;4995074;28;19926;-73
2022/02/25 06:52:24;;;;;;;;;;;3.70;99.90;;;;;;4996607;28;20298;-72
2022/02/25 06:54:50;;;;;;;;;;;3.70;99.90;;;;;;5002129;28;19956;-72
2022/02/25 06:57:19;;;;;;;;;;;3.80;99.90;;;;;;4992815;28;19925;-72
2022/02/25 06:59:46;;;;;;;;;;;3.80;99.90;;;;;;5002942;28;20004;-72
2022/02/25 07:02:13;;;;;;;;;;;3.90;99.90;;;;;;4993577;28;19975;-73
2022/02/25 07:04:39;;;;;;;;;;;4.00;99.90;;;;;;4998794;28;20024;-73
2022/02/25 07:07:07;;;;;;;;;;;4.10;99.90;;;;;;5006324;28;20399;-72
2022/02/25 07:09:34;;;;;;;;;;;4.10;99.90;;;;;;5000267;28;19960;-71
2022/02/25 07:12:01;;;;;;;;;;;4.30;99.90;;;;;;4998429;28;19983;-70
2022/02/25 07:14:29;;;;;;;;;;;4.30;99.90;;;;;;4997756;28;19925;-72
2022/02/25 07:16:55;;;;;;;;;;;4.50;99.90;;;;;;5005185;28;19933;-71
2022/02/25 07:19:22;;;;;;;;;;;4.40;99.90;;;;;;5005192;28;19929;-72
2022/02/25 07:21:49;;;;;;;;;;;4.40;99.90;;;;;;5001906;28;19926;-71
2022/02/25 07:24:17;;;;;;;;;;;4.50;99.90;;;;;;4998768;28;19933;-70
2022/02/25 07:26:45;;;;;;;;;;;4.50;99.90;;;;;;5004121;28;19925;-71
2022/02/25 07:29:11;;;;;;;;;;;4.50;99.90;;;;;;5004838;28;19929;-71
2022/02/25 07:31:40;;;;;;;;;;;4.60;99.90;;;;;;5009669;28;19934;-72
2022/02/25 07:34:06;;;;;;;;;;;4.70;99.90;;;;;;5001270;28;19929;-73
2022/02/25 07:36:33;;;;;;;;;;;4.70;99.90;;;;;;5008557;28;19974;-71
2022/02/25 07:39:00;;;;;;;;;;;4.70;99.90;;;;;;4997300;28;20425;-71
2022/02/25 07:41:27;;;;;;;;;;;4.80;99.90;;;;;;5002914;28;19926;-71
2022/02/25 07:43:53;;;;;;;;;;;4.80;99.90;;;;;;5003268;28;19951;-72
2022/02/25 07:46:20;;;;;;;;;;;4.80;99.90;;;;;;5004198;28;19933;-72
2022/02/25 07:48:48;;;;;;;;;;;4.80;99.90;;;;;;5007456;28;19925;-73
2022/02/25 07:51:14;;;;;;;;;;;4.80;99.90;;;;;;4997154;28;19936;-73
2022/02/25 07:53:43;;;;;;;;;;;4.80;99.90;;;;;;5005929;28;19936;-73
2022/02/25 07:56:11;;;;;;;;;;;4.90;99.90;;;;;;5003391;28;19938;-73
2022/02/25 07:58:37;;;;;;;;;;;5.00;99.90;;;;;;5002289;28;20025;-73
2022/02/25 08:01:05;;;;;;;;;;;5.10;99.90;;;;;;5007483;28;19937;-73
2022/02/25 08:03:31;;;;;;;;;;;5.10;99.90;;;;;;4999627;28;20463;-73
2022/02/25 08:05:59;;;;;;;;;;;5.10;99.90;;;;;;5001075;28;20291;-73
2022/02/25 08:08:26;;;;;;;;;;;5.10;99.90;;;;;;5002758;28;19940;-73
2022/02/25 08:10:52;;;;;;;;;;;5.10;99.90;;;;;;4998639;28;20021;-73
2022/02/25 08:13:20;;;;;;;;;;;5.20;99.90;;;;;;5006951;28;19926;-73
2022/02/25 08:15:46;;;;;;;;;;;5.20;99.90;;;;;;5006376;28;19934;-73
2022/02/25 08:18:14;;;;;;;;;;;5.20;99.90;;;;;;5010521;28;19934;-73
2022/02/25 08:20:41;;;;;;;;;;;5.20;99.90;;;;;;5006064;28;19933;-73
2022/02/25 08:23:09;;;;;;;;;;;5.40;99.90;;;;;;5004940;28;19925;-73
2022/02/25 08:25:36;;;;;;;;;;;5.40;99.90;;;;;;5008635;28;19932;-73
2022/02/25 08:28:03;;;;;;;;;;;5.40;99.90;;;;;;4995790;28;20005;-73
2022/02/25 08:30:29;;;;;;;;;;;5.50;99.90;;;;;;5003351;28;19925;-73
2022/02/25 08:33:00;;;;;;;;;;;5.40;99.90;;;;;;5003830;28;19925;-74
2022/02/25 08:35:27;;;;;;;;;;;5.50;99.90;;;;;;5004049;28;20388;-72
2022/02/25 08:37:54;;;;;;;;;;;5.60;99.90;;;;;;4997259;28;19926;-71
2022/02/25 08:40:22;;;;;;;;;;;5.60;99.90;;;;;;5008443;28;19929;-72
2022/02/25 08:42:49;;;;;;;;;;;5.60;99.90;;;;;;5008989;28;19932;-71
2022/02/25 08:45:15;;;;;;;;;;;5.60;99.90;;;;;;5006718;28;20373;-71
2022/02/25 08:47:43;;;;;;;;;;;5.70;99.90;;;;;;5003389;28;19952;-71
2022/02/25 08:50:10;;;;;;;;;;;5.80;99.90;;;;;;4992594;28;19930;-72
2022/02/25 08:52:38;;;;;;;;;;;5.90;99.90;;;;;;5007801;28;19955;-73
2022/02/25 08:55:05;;;;;;;;;;;6.10;99.90;;;;;;5007098;28;19930;-70
2022/02/25 08:57:33;;;;;;;;;;;6.30;99.90;;;;;;4999757;28;20469;-74
2022/02/25 09:00:00;;;;;;;;;;;6.30;99.90;;;;;;5004506;28;20007;-73
2022/02/25 09:02:26;;;;;;;;;;;6.80;99.90;;;;;;5001882;28;19930;-73
2022/02/25 09:04:53;;;;;;;;;;;7.90;99.90;;;;;;5006309;28;19939;-73
2022/02/25 09:07:20;;;;;;;;;;;8.80;98.30;;;;;;4999466;28;20025;-74
2022/02/25 09:09:46;;;;;;;;;;;9.50;96.00;;;;;;5007886;28;19926;-74
2022/02/25 09:12:13;;;;;;;;;;;9.80;94.50;;;;;;5003331;28;20388;-73
2022/02/25 09:14:41;;;;;;;;;;;9.00;94.40;;;;;;5008020;28;20384;-72
2022/02/25 09:17:08;;;;;;;;;;;8.90;95.40;;;;;;5001709;28;19929;-73
2022/02/25 09:19:35;;;;;;;;;;;9.10;94.20;;;;;;5000826;28;19933;-73
2022/02/25 09:22:02;;;;;;;;;;;9.20;93.90;;;;;;5004221;28;20368;-73
2022/02/25 09:24:29;;;;;;;;;;;9.00;94.00;;;;;;5005086;28;19988;-72
2022/02/25 09:26:56;;;;;;;;;;;7.80;95.70;;;;;;4994284;28;20020;-72
2022/02/25 09:29:23;;;;;;;;;;;7.30;96.90;;;;;;4998669;28;19933;-72
2022/02/25 09:31:51;;;;;;;;;;;8.10;96.80;;;;;;4999397;28;20359;-72
2022/02/25 09:34:19;;;;;;;;;;;9.40;94.00;;;;;;5001146;28;19979;-73
2022/02/25 09:36:45;;;;;;;;;;;9.30;94.20;;;;;;4999417;28;20037;-73
2022/02/25 09:39:12;;;;;;;;;;;9.50;93.10;;;;;;5009491;28;19926;-73
2022/02/25 09:41:39;;;;;;;;;;;8.90;93.10;;;;;;5001364;28;19926;-73
2022/02/25 09:44:06;;;;;;;;;;;9.70;93.90;;;;;;5005908;28;19961;-73
2022/02/25 09:46:33;;;;;;;;;;;10.30;91.20;;;;;;4999451;28;19937;-73
2022/02/25 09:49:01;;;;;;;;;;;9.70;91.30;;;;;;5004365;28;19932;-72
2022/02/25 09:51:28;;;;;;;;;;;9.10;92.40;;;;;;4999629;28;20374;-73
2022/02/25 09:53:55;;;;;;;;;;;8.60;93.40;;;;;;5007208;28;19929;-72
2022/02/25 09:56:23;;;;;;;;;;;8.00;94.40;;;;;;4999630;28;19956;-73
2022/02/25 09:58:50;;;;;;;;;;;7.80;95.20;;;;;;4997535;28;19926;-73
2022/02/25 10:01:18;;;;;;;;;;;8.00;95.20;;;;;;5003735;28;20307;-75
2022/02/25 10:03:50;;;;;;;;;;;8.10;95.20;;;;;;5008535;28;20008;-74
2022/02/25 10:06:18;;;;;;;;;;;8.00;95.50;;;;;;5000960;28;19940;-74
2022/02/25 10:08:44;;;;;;;;;;;8.00;95.20;;;;;;5000801;28;19932;-74
2022/02/25 10:11:11;;;;;;;;;;;8.10;95.90;;;;;;4992617;28;19925;-73
2022/02/25 10:13:38;;;;;;;;;;;8.30;95.60;;;;;;4993849;28;19933;-72
2022/02/25 10:16:09;;;;;;;;;;;8.60;95.20;;;;;;5004864;28;19941;-73
2022/02/25 10:18:36;;;;;;;;;;;8.70;94.70;;;;;;5008095;28;19925;-73
2022/02/25 10:21:04;;;;;;;;;;;8.50;94.40;;;;;;5009800;28;19925;-73
2022/02/25 10:23:33;;;;;;;;;;;8.40;94.70;;;;;;5003978;28;20381;-74
2022/02/25 10:26:08;;;;;;;;;;;8.50;94.30;;;;;;5009460;28;20403;-73
2022/02/25 10:28:35;;;;;;;;;;;8.70;94.20;;;;;;5006646;28;19929;-74
2022/02/25 10:31:35;;;;;;;;;;;8.70;94.00;;;;;;4993795;28;19926;-74
2022/02/25 10:34:03;;;;;;;;;;;8.30;94.00;;;;;;5019126;28;19929;-75
2022/02/25 10:36:37;;;;;;;;;;;8.10;95.00;;;;;;5023898;28;19925;-73
2022/02/25 10:39:06;;;;;;;;;;;8.10;95.70;;;;;;5013410;28;20063;-74
2022/02/25 10:41:32;;;;;;;;;;;8.10;95.40;;;;;;5001017;28;19926;-73
2022/02/25 10:43:59;;;;;;;;;;;8.20;95.20;;;;;;4998904;28;19926;-73
2022/02/25 10:46:26;;;;;;;;;;;8.30;94.90;;;;;;5008736;28;20020;-74
2022/02/25 10:49:04;;;;;;;;;;;8.30;94.90;;;;;;5006143;28;19929;-74
2022/02/25 10:51:34;;;;;;;;;;;8.40;95.00;;;;;;5008184;28;19971;-73
2022/02/25 10:54:01;;;;;;;;;;;8.50;94.70;;;;;;4998873;28;19932;-73
2022/02/25 10:56:41;;;;;;;;;;;8.50;94.70;;;;;;5007597;28;19933;-74
2022/02/25 10:59:11;;;;;;;;;;;8.90;94.20;;;;;;5003666;28;20223;-72
2022/02/25 11:01:38;;;;;;;;;;;8.50;94.20;;;;;;5005336;28;19933;-73
2022/02/25 11:04:06;;;;;;;;;;;8.50;94.70;;;;;;5003876;28;19936;-74
2022/02/25 11:06:32;;;;;;;;;;;8.40;94.50;;;;;;5005183;28;19932;-73
2022/02/25 11:09:00;;;;;;;;;;;8.40;94.60;;;;;;5003230;28;20291;-73
2022/02/25 11:11:27;;;;;;;;;;;8.40;94.20;;;;;;5003861;28;19931;-73
2022/02/25 11:13:55;;;;;;;;;;;8.30;93.50;;;;;;5002255;28;19937;-74
2022/02/25 11:16:22;;;;;;;;;;;8.30;93.70;;;;;;5000777;28;20418;-73
2022/02/25 11:18:49;;;;;;;;;;;8.10;93.60;;;;;;5001303;28;19926;-73
2022/02/25 11:21:16;;;;;;;;;;;8.20;94.10;;;;;;4999774;28;19948;-73
2022/02/25 11:23:44;;;;;;;;;;;8.20;93.50;;;;;;5002749;28;20017;-73
2022/02/25 11:26:11;;;;;;;;;;;8.40;93.70;;;;;;5004523;28;19986;-73
2022/02/25 11:28:38;;;;;;;;;;;8.50;93.10;;;;;;5006938;28;20368;-73
2022/02/25 11:31:08;;;;;;;;;;;8.80;93.00;;;;;;5006633;28;20369;-76
2022/02/25 11:33:35;;;;;;;;;;;8.60;93.30;;;;;;5009793;28;19933;-74
2022/02/25 11:36:03;;;;;;;;;;;8.80;93.00;;;;;;5004147;28;20265;-73
2022/02/25 11:38:30;;;;;;;;;;;9.00;92.20;;;;;;5005423;28;19930;-73
2022/02/25 11:40:59;;;;;;;;;;;8.80;91.80;;;;;;5003364;28;19932;-74
2022/02/25 11:43:33;;;;;;;;;;;8.80;91.90;;;;;;5006787;28;19936;-73
2022/02/25 11:45:59;;;;;;;;;;;8.70;91.50;;;;;;5003699;28;19932;-73
2022/02/25 11:48:28;;;;;;;;;;;8.40;91.90;;;;;;5004136;28;19936;-73
2022/02/25 11:50:56;;;;;;;;;;;8.30;92.00;;;;;;5000311;28;20482;-72
2022/02/25 11:53:24;;;;;;;;;;;8.30;92.00;;;;;;4998692;28;19948;-72
2022/02/25 11:55:51;;;;;;;;;;;8.40;92.00;;;;;;5000936;28;19926;-74
2022/02/25 11:58:37;;;;;;;;;;;8.40;91.70;;;;;;4996113;28;19932;-72
2022/02/25 12:01:04;;;;;;;;;;;8.30;91.10;;;;;;4998402;28;19932;-72
2022/02/25 12:03:33;;;;;;;;;;;8.30;91.20;;;;;;4996945;28;19936;-73
2022/02/25 12:06:00;;;;;;;;;;;8.20;91.40;;;;;;5002146;28;19925;-72
2022/02/25 12:08:28;;;;;;;;;;;8.10;91.80;;;;;;4997345;28;20360;-72
2022/02/25 12:10:59;;;;;;;;;;;8.10;93.10;;;;;;4999886;28;20426;-74
2022/02/25 12:13:27;;;;;;;;;;;8.20;93.60;;;;;;5000634;28;19932;-73
2022/02/25 12:15:54;;;;;;;;;;;8.20;92.30;;;;;;5002023;28;19934;-73
2022/02/25 12:18:36;;;;;;;;;;;8.20;93.00;;;;;;4999234;28;19926;-74
2022/02/25 12:21:04;;;;;;;;;;;8.20;93.00;;;;;;5007537;28;19926;-73
2022/02/25 12:23:40;;;;;;;;;;;8.10;92.90;;;;;;5003181;28;20296;-73
2022/02/25 12:26:07;;;;;;;;;;;8.00;92.90;;;;;;5004841;28;19929;-73
2022/02/25 12:28:53;;;;;;;;;;;7.90;92.30;;;;;;5005069;28;19925;-73
2022/02/25 12:31:23;;;;;;;;;;;7.80;92.10;;;;;;4997962;28;20392;-73
2022/02/25 12:34:04;;;;;;;;;;;8.00;92.60;;;;;;5000317;28;20016;-73
2022/02/25 12:36:45;;;;;;;;;;;8.10;92.30;;;;;;5000740;28;19934;-73
2022/02/25 12:39:16;;;;;;;;;;;8.30;90.60;;;;;;5007057;28;20447;-73
2022/02/25 12:41:44;;;;;;;;;;;8.50;90.80;;;;;;5003211;28;20542;-73
2022/02/25 12:44:12;;;;;;;;;;;8.70;90.10;;;;;;5005028;28;19925;-73
2022/02/25 12:46:39;;;;;;;;;;;8.70;90.00;;;;;;5001835;28;19926;-73
2022/02/25 12:49:07;;;;;;;;;;;8.80;89.80;;;;;;5007656;28;20007;-77
2022/02/25 12:51:33;;;;;;;;;;;9.00;89.60;;;;;;4998049;28;19976;-73
2022/02/25 12:54:03;;;;;;;;;;;9.30;89.20;;;;;;5004920;28;20451;-73
2022/02/25 12:56:31;;;;;;;;;;;9.80;89.10;;;;;;5000309;28;19965;-73
2022/02/25 12:58:58;;;;;;;;;;;9.60;86.40;;;;;;5006427;28;19926;-74
2022/02/25 13:01:26;;;;;;;;;;;9.30;87.00;;;;;;5006046;28;19932;-73
2022/02/25 13:04:00;;;;;;;;;;;9.30;88.20;;;;;;5008758;28;19926;-73
2022/02/25 13:06:28;;;;;;;;;;;9.40;87.10;;;;;;5007709;28;19930;-73
2022/02/25 13:08:56;;;;;;;;;;;9.40;86.90;;;;;;5006688;28;20454;-73
2022/02/25 13:11:24;;;;;;;;;;;9.60;85.80;;;;;;5004776;28;19970;-73
2022/02/25 13:13:52;;;;;;;;;;;9.50;84.90;;;;;;5004566;28;19948;-73
2022/02/25 13:16:18;;;;;;;;;;;9.30;85.30;;;;;;5001937;28;20013;-74
2022/02/25 13:18:45;;;;;;;;;;;9.40;85.90;;;;;;5001636;28;19926;-74
2022/02/25 13:21:12;;;;;;;;;;;9.20;84.20;;;;;;5005416;28;20008;-74
2022/02/25 13:23:46;;;;;;;;;;;9.30;84.60;;;;;;5006985;28;19926;-73
2022/02/25 13:26:18;;;;;;;;;;;9.60;83.40;;;;;;5000242;28;20292;-73
2022/02/25 13:28:46;;;;;;;;;;;9.40;84.00;;;;;;5006218;28;19925;-73
2022/02/25 13:31:22;;;;;;;;;;;9.20;85.80;;;;;;5002011;28;19926;-73
2022/02/25 13:33:49;;;;;;;;;;;9.20;85.80;;;;;;5002462;28;19925;-73
2022/02/25 13:36:16;;;;;;;;;;;9.10;86.00;;;;;;5002746;28;19925;-73
2022/02/25 13:38:43;;;;;;;;;;;8.80;87.10;;;;;;5003841;28;19940;-72
2022/02/25 13:41:10;;;;;;;;;;;8.30;90.30;;;;;;5004326;28;19926;-73
2022/02/25 13:43:38;;;;;;;;;;;8.00;91.10;;;;;;5006465;28;19930;-73
2022/02/25 13:46:14;;;;;;;;;;;7.90;91.60;;;;;;5000252;28;19933;-72
2022/02/25 13:54:12;;;;;;;;;;;7.90;92.30;;;;;;5000957;28;20304;-72
2022/02/25 13:56:40;;;;;;;;;;;7.90;92.90;;;;;;5000552;28;19925;-73
2022/02/25 13:59:08;;;;;;;;;;;7.70;93.50;;;;;;5003590;28;19932;-72
2022/02/25 14:01:36;;;;;;;;;;;7.70;94.30;;;;;;5002111;28;19926;-73
2022/02/25 14:04:11;;;;;;;;;;;8.10;94.40;;;;;;5005322;28;19925;-72
2022/02/25 14:06:38;;;;;;;;;;;8.30;93.70;;;;;;5002990;28;20016;-73
2022/02/25 14:09:16;;;;;;;;;;;8.40;93.50;;;;;;5007190;28;20418;-73
2022/02/25 14:11:42;;;;;;;;;;;8.40;93.50;;;;;;5001424;28;19933;-73
2022/02/25 14:14:09;;;;;;;;;;;8.40;93.30;;;;;;5002715;28;19926;-74
2022/02/25 14:16:42;;;;;;;;;;;8.40;93.80;;;;;;5000426;28;19926;-74
2022/02/25 14:19:13;;;;;;;;;;;8.60;93.10;;;;;;5004087;28;20406;-74
2022/02/25 14:21:40;;;;;;;;;;;8.80;91.70;;;;;;5006962;28;19929;-74
2022/02/25 14:24:19;;;;;;;;;;;8.90;90.90;;;;;;5003412;28;19964;-73
2022/02/25 14:26:46;;;;;;;;;;;9.10;91.50;;;;;;4998624;28;19986;-73
2022/02/25 14:29:16;;;;;;;;;;;9.20;90.60;;;;;;5000741;28;20016;-73
2022/02/25 14:31:44;;;;;;;;;;;9.10;90.70;;;;;;5003016;28;19925;-74
2022/02/25 14:34:13;;;;;;;;;;;9.20;90.60;;;;;;5000067;28;19925;-75
2022/02/25 14:36:40;;;;;;;;;;;9.20;90.90;;;;;;4998761;28;19934;-73
2022/02/25 14:39:06;;;;;;;;;;;9.50;90.40;;;;;;5004738;28;19937;-72
2022/02/25 14:41:33;;;;;;;;;;;9.30;90.70;;;;;;5005510;28;19925;-72
2022/02/25 14:44:09;;;;;;;;;;;9.30;88.30;;;;;;5001320;28;19934;-74